Time;durP1;ratioP1;P1;durP2;ratioP2;P2;SDS_P1;SDS_P2;PMS_P1;PMS_P2;Temp;Humidity;BMP_temperature;BMP_pressure;BME280_temperature;BME280_humidity;BME280_pressure;Samples;Min_cycle;Max_cycle;Signal;HPM_P1;HPM_P2
2023/07/27 00:00:52;;;;;;;5.85;3.00;;;12.20;97.80;;;;;;5136560;27;20446;-83
2023/07/27 00:03:17;;;;;;;5.97;2.55;;;12.30;97.90;;;;;;5118214;27;20027;-83
2023/07/27 00:05:43;;;;;;;5.00;2.75;;;12.30;98.00;;;;;;5117360;27;20015;-83
2023/07/27 00:08:08;;;;;;;5.05;2.90;;;12.40;97.60;;;;;;5134692;27;20479;-82
2023/07/27 00:10:34;;;;;;;5.80;2.80;;;12.40;97.80;;;;;;5117214;27;20034;-82
2023/07/27 00:12:59;;;;;;;7.55;2.80;;;12.40;97.70;;;;;;5128205;27;20023;-82
2023/07/27 00:15:25;;;;;;;8.43;3.47;;;12.50;97.40;;;;;;5135794;28;20027;-82
2023/07/27 00:17:50;;;;;;;6.32;2.80;;;12.40;98.00;;;;;;5124337;28;20033;-83
2023/07/27 00:20:16;;;;;;;5.10;2.88;;;12.20;98.00;;;;;;5129408;28;20035;-83
2023/07/27 00:22:42;;;;;;;5.38;3.00;;;12.00;98.00;;;;;;5135210;28;20050;-83
2023/07/27 00:25:07;;;;;;;4.88;2.60;;;12.10;98.00;;;;;;5118213;28;20023;-83
2023/07/27 00:27:33;;;;;;;5.13;2.75;;;12.20;98.00;;;;;;5135553;27;20053;-83
2023/07/27 00:29:58;;;;;;;5.43;2.53;;;12.10;98.00;;;;;;5136611;28;20024;-83
2023/07/27 00:32:24;;;;;;;6.10;2.75;;;12.10;98.00;;;;;;5136862;28;20031;-83
2023/07/27 00:34:51;;;;;;;4.70;2.58;;;12.30;98.00;;;;;;5134455;28;20019;-83
2023/07/27 00:37:17;;;;;;;7.20;2.88;;;12.30;98.00;;;;;;5136368;27;20023;-83
2023/07/27 00:39:42;;;;;;;5.60;2.72;;;12.20;98.00;;;;;;5140582;27;20038;-83
2023/07/27 00:42:08;;;;;;;5.18;2.30;;;12.20;98.00;;;;;;5139916;27;20023;-83
2023/07/27 00:44:33;;;;;;;5.20;2.65;;;12.30;98.00;;;;;;5139989;27;20026;-83
2023/07/27 00:46:59;;;;;;;6.15;2.83;;;12.30;97.90;;;;;;5139566;27;20022;-83
2023/07/27 00:49:24;;;;;;;7.53;2.90;;;12.40;97.60;;;;;;5138496;27;20100;-83
2023/07/27 00:51:50;;;;;;;5.57;2.67;;;12.40;97.40;;;;;;5139042;27;20031;-83
2023/07/27 00:54:17;;;;;;;4.57;2.60;;;12.50;97.10;;;;;;5138919;27;20031;-82
2023/07/27 00:56:42;;;;;;;5.35;2.60;;;12.70;96.60;;;;;;5130758;27;20084;-83
2023/07/27 00:59:08;;;;;;;6.22;2.83;;;12.70;96.90;;;;;;5120987;27;20031;-83
2023/07/27 01:01:34;;;;;;;5.07;2.72;;;12.50;97.10;;;;;;5137865;27;20495;-83
2023/07/27 01:04:00;;;;;;;5.05;2.65;;;12.50;97.10;;;;;;5138666;27;20031;-83
2023/07/27 01:06:29;;;;;;;7.32;2.63;;;12.40;97.30;;;;;;5137649;27;20470;-83
2023/07/27 01:08:58;;;;;;;5.40;2.40;;;12.40;97.10;;;;;;5138397;27;20029;-83
2023/07/27 01:11:55;;;;;;;5.60;2.28;;;12.40;97.30;;;;;;5127152;27;20023;-83
2023/07/27 01:14:50;;;;;;;6.53;2.80;;;12.40;97.30;;;;;;5134564;27;20492;-83
2023/07/27 01:17:39;;;;;;;5.55;2.70;;;12.50;97.40;;;;;;5137990;27;20027;-83
2023/07/27 01:20:10;;;;;;;6.07;3.00;;;12.40;97.60;;;;;;5124736;27;20036;-83
2023/07/27 01:22:56;;;;;;;5.32;3.10;;;12.50;97.40;;;;;;5122642;27;20054;-83
2023/07/27 01:25:45;;;;;;;5.25;2.60;;;12.50;97.60;;;;;;5126854;27;20027;-83
2023/07/27 01:28:57;;;;;;;4.97;2.60;;;12.50;97.70;;;;;;5119956;27;20435;-83
2023/07/27 01:31:32;;;;;;;6.60;2.90;;;12.50;97.80;;;;;;5125307;27;20080;-82
2023/07/27 01:34:02;;;;;;;6.78;2.80;;;12.40;98.00;;;;;;5130380;27;20068;-82
2023/07/27 01:36:34;;;;;;;6.05;2.83;;;12.50;97.80;;;;;;5137565;27;20015;-82
2023/07/27 01:39:03;;;;;;;5.78;2.88;;;12.60;97.70;;;;;;5129877;27;20023;-81
2023/07/27 01:41:30;;;;;;;6.18;3.00;;;12.60;97.40;;;;;;5137993;27;20027;-81
2023/07/27 01:43:56;;;;;;;5.15;2.80;;;12.70;97.00;;;;;;5138492;27;20019;-84
2023/07/27 01:46:23;;;;;;;6.90;2.75;;;12.70;97.20;;;;;;5140284;27;20087;-84
2023/07/27 01:48:51;;;;;;;6.43;2.90;;;12.60;97.50;;;;;;5133401;27;20039;-83
2023/07/27 01:51:18;;;;;;;6.72;3.40;;;12.50;97.40;;;;;;5137327;27;20023;-82
2023/07/27 01:53:46;;;;;;;6.95;3.10;;;12.40;97.80;;;;;;5138193;27;20091;-83
2023/07/27 01:56:13;;;;;;;6.03;2.63;;;12.30;98.00;;;;;;5120889;27;20031;-83
2023/07/27 01:58:40;;;;;;;5.28;2.72;;;12.30;98.00;;;;;;5121265;27;20176;-84
2023/07/27 02:01:10;;;;;;;5.35;3.22;;;12.30;97.90;;;;;;5121024;27;20301;-84
2023/07/27 02:03:36;;;;;;;5.65;2.58;;;12.40;97.70;;;;;;5138122;27;20114;-83
2023/07/27 02:06:02;;;;;;;7.22;3.13;;;12.60;97.30;;;;;;5119013;27;20027;-83
2023/07/27 02:08:27;;;;;;;5.70;2.88;;;12.70;97.10;;;;;;5138864;27;20472;-84
2023/07/27 02:11:03;;;;;;;4.82;2.70;;;12.80;97.10;;;;;;5138866;27;20027;-84
2023/07/27 02:13:38;;;;;;;4.93;2.60;;;12.80;97.00;;;;;;5139117;27;20072;-84
2023/07/27 02:16:41;;;;;;;5.40;2.72;;;12.80;97.30;;;;;;5138320;27;20050;-84
2023/07/27 02:19:07;;;;;;;6.07;2.60;;;12.70;97.40;;;;;;5138204;27;20030;-84
2023/07/27 02:21:34;;;;;;;5.03;2.53;;;12.80;97.50;;;;;;5137281;27;20028;-83
2023/07/27 02:24:01;;;;;;;6.07;2.85;;;12.90;97.20;;;;;;5138511;27;20407;-83
2023/07/27 02:26:27;;;;;;;7.18;2.90;;;13.00;97.10;;;;;;5138819;27;20027;-83
2023/07/27 02:28:53;;;;;;;6.22;2.40;;;13.10;96.70;;;;;;5137671;27;20049;-83
2023/07/27 02:31:18;;;;;;;6.38;3.03;;;13.20;96.70;;;;;;5138403;27;20059;-83
2023/07/27 02:33:44;;;;;;;4.20;2.40;;;13.20;96.60;;;;;;5137656;27;20331;-83
2023/07/27 02:36:09;;;;;;;8.23;2.67;;;13.30;96.40;;;;;;5136236;27;20304;-83
2023/07/27 02:38:36;;;;;;;5.25;2.75;;;13.40;96.40;;;;;;5138518;27;20304;-83
2023/07/27 02:41:02;;;;;;;4.95;2.53;;;13.40;96.20;;;;;;5138222;27;20031;-83
2023/07/27 02:43:27;;;;;;;7.07;3.33;;;13.50;96.20;;;;;;5138627;27;20016;-83
2023/07/27 02:45:59;;;;;;;6.97;3.00;;;13.50;96.20;;;;;;5137989;27;20032;-84
2023/07/27 02:48:26;;;;;;;6.72;2.70;;;13.50;96.40;;;;;;5138045;27;20118;-83
2023/07/27 02:50:52;;;;;;;7.55;2.63;;;13.50;96.10;;;;;;5117972;27;20050;-83
2023/07/27 02:53:18;;;;;;;7.75;2.88;;;13.60;96.20;;;;;;5119612;27;20379;-83
2023/07/27 02:56:00;;;;;;;5.35;2.60;;;13.60;96.10;;;;;;5119835;27;20062;-84
2023/07/27 02:58:27;;;;;;;6.28;2.72;;;13.70;96.00;;;;;;5120031;27;20297;-84
2023/07/27 03:00:55;;;;;;;5.53;2.50;;;13.70;96.10;;;;;;5118632;27;20035;-84
2023/07/27 03:03:22;;;;;;;8.05;2.65;;;13.80;96.00;;;;;;5137894;27;20023;-84
2023/07/27 03:05:47;;;;;;;4.55;2.47;;;13.90;96.00;;;;;;5136060;27;20076;-84
2023/07/27 03:08:13;;;;;;;5.70;2.58;;;13.90;95.80;;;;;;5138124;27;20419;-83
2023/07/27 03:10:39;;;;;;;6.45;2.50;;;13.90;95.80;;;;;;5137724;27;20315;-83
2023/07/27 03:13:04;;;;;;;4.90;2.67;;;13.90;95.70;;;;;;5119174;27;20023;-84
2023/07/27 03:15:30;;;;;;;6.10;3.05;;;13.90;96.10;;;;;;5137767;27;20035;-83
2023/07/27 03:17:55;;;;;;;5.25;2.53;;;13.90;95.90;;;;;;5137408;27;20065;-83
2023/07/27 03:20:21;;;;;;;5.50;2.58;;;13.90;95.80;;;;;;5135042;27;20091;-83
2023/07/27 03:22:46;;;;;;;7.55;2.65;;;14.00;95.80;;;;;;5137579;27;20053;-83
2023/07/27 03:25:12;;;;;;;5.18;2.47;;;14.00;95.70;;;;;;5134786;27;20023;-82
2023/07/27 03:27:37;;;;;;;4.88;2.50;;;14.00;95.60;;;;;;5132832;27;20023;-83
2023/07/27 03:30:04;;;;;;;5.65;2.92;;;14.00;95.80;;;;;;5136077;27;20137;-82
2023/07/27 03:32:29;;;;;;;5.05;2.50;;;14.10;95.50;;;;;;5118946;27;20057;-83
2023/07/27 03:34:55;;;;;;;6.40;2.80;;;14.10;95.40;;;;;;5131916;27;20023;-83
2023/07/27 03:37:20;;;;;;;5.13;2.75;;;14.10;95.30;;;;;;5106996;27;20055;-84
2023/07/27 03:39:46;;;;;;;7.20;3.40;;;14.10;95.40;;;;;;5135093;27;20442;-85
2023/07/27 03:42:11;;;;;;;6.63;3.00;;;14.00;95.60;;;;;;5135703;27;20025;-84
2023/07/27 03:44:38;;;;;;;4.50;2.42;;;14.00;95.70;;;;;;5137370;27;20103;-84
2023/07/27 03:47:04;;;;;;;6.60;2.67;;;13.90;95.90;;;;;;5131978;27;20027;-84
2023/07/27 03:49:29;;;;;;;5.47;2.80;;;13.90;95.90;;;;;;5135804;27;20340;-84
2023/07/27 03:51:55;;;;;;;7.28;3.63;;;13.90;96.10;;;;;;5133358;27;20299;-84
2023/07/27 03:54:20;;;;;;;5.68;3.13;;;14.10;95.40;;;;;;5128551;27;20026;-84
2023/07/27 03:56:48;;;;;;;5.00;2.42;;;14.10;95.70;;;;;;5133918;27;20031;-83
2023/07/27 03:59:14;;;;;;;4.72;2.42;;;14.10;95.40;;;;;;5135757;27;20034;-84
2023/07/27 04:01:39;;;;;;;5.38;2.88;;;14.10;95.60;;;;;;5136515;27;20019;-85
2023/07/27 04:04:05;;;;;;;6.60;2.90;;;14.10;95.40;;;;;;5133974;27;20055;-85
2023/07/27 04:06:31;;;;;;;5.43;2.78;;;14.10;95.50;;;;;;5122314;27;20035;-84
2023/07/27 04:08:56;;;;;;;6.03;2.50;;;14.20;95.40;;;;;;5130973;27;20034;-84
2023/07/27 04:11:22;;;;;;;6.60;3.15;;;14.20;95.40;;;;;;5130623;27;20072;-85
2023/07/27 04:13:47;;;;;;;6.82;2.67;;;14.20;95.60;;;;;;5122029;27;20027;-84
2023/07/27 04:16:13;;;;;;;5.05;2.60;;;14.20;95.50;;;;;;5136341;27;20030;-84
2023/07/27 04:18:41;;;;;;;4.35;2.28;;;14.20;95.70;;;;;;5136860;28;20426;-85
2023/07/27 04:21:07;;;;;;;5.47;2.90;;;14.20;95.30;;;;;;5133823;28;20027;-85
2023/07/27 04:23:33;;;;;;;4.95;2.53;;;14.20;95.40;;;;;;5136320;28;20084;-85
2023/07/27 04:26:01;;;;;;;7.35;2.83;;;14.30;94.90;;;;;;5134914;27;20340;-85
2023/07/27 04:28:27;;;;;;;5.85;2.78;;;14.30;95.10;;;;;;5136332;28;20026;-83
2023/07/27 04:30:52;;;;;;;8.15;2.80;;;14.40;94.90;;;;;;5136617;28;20035;-82
2023/07/27 04:33:18;;;;;;;5.13;2.70;;;14.40;94.90;;;;;;5135513;27;20027;-83
2023/07/27 04:35:43;;;;;;;7.05;3.30;;;14.40;94.70;;;;;;5132615;28;20102;-83
2023/07/27 04:38:09;;;;;;;6.07;3.05;;;14.40;94.70;;;;;;5133712;28;20035;-83
2023/07/27 04:40:34;;;;;;;7.05;2.65;;;14.50;94.60;;;;;;5133731;27;20031;-85
2023/07/27 04:43:00;;;;;;;7.07;2.60;;;14.50;94.50;;;;;;5134705;28;20034;-85
2023/07/27 04:45:25;;;;;;;7.15;2.85;;;14.60;94.20;;;;;;5134565;28;20072;-85
2023/07/27 04:47:51;;;;;;;5.97;2.20;;;14.60;94.20;;;;;;5117945;28;20059;-85
2023/07/27 04:50:17;;;;;;;5.85;2.75;;;14.60;94.20;;;;;;5133880;28;20027;-84
2023/07/27 04:52:42;;;;;;;5.97;2.45;;;14.60;94.10;;;;;;5135276;28;20308;-84
2023/07/27 04:55:08;;;;;;;6.78;2.70;;;14.70;94.10;;;;;;5133675;28;20061;-84
2023/07/27 04:57:33;;;;;;;6.90;2.75;;;14.80;93.70;;;;;;5136368;28;20031;-84
2023/07/27 04:59:59;;;;;;;4.95;2.60;;;14.80;93.70;;;;;;5135473;28;20027;-84
2023/07/27 05:02:27;;;;;;;5.35;2.45;;;14.90;93.60;;;;;;5134997;28;20114;-84
2023/07/27 05:04:53;;;;;;;6.88;2.55;;;15.00;93.20;;;;;;5132911;27;20356;-85
2023/07/27 05:07:20;;;;;;;5.85;2.63;;;15.00;93.50;;;;;;5134374;28;20099;-85
2023/07/27 05:09:46;;;;;;;5.82;2.65;;;15.00;93.40;;;;;;5130822;28;20019;-85
2023/07/27 05:12:11;;;;;;;5.22;2.50;;;15.00;93.30;;;;;;5136631;28;20460;-84
2023/07/27 05:14:37;;;;;;;5.00;2.50;;;15.00;93.10;;;;;;5117297;28;20035;-84
2023/07/27 05:17:02;;;;;;;5.97;2.50;;;15.00;93.00;;;;;;5134995;27;20023;-85
2023/07/27 05:19:28;;;;;;;5.75;2.40;;;15.10;93.10;;;;;;5134348;27;20046;-85
2023/07/27 05:21:53;;;;;;;5.55;2.50;;;15.20;93.30;;;;;;5135233;28;20027;-84
2023/07/27 05:24:19;;;;;;;5.55;2.40;;;15.20;92.70;;;;;;5137359;27;20102;-83
2023/07/27 05:26:45;;;;;;;6.68;2.58;;;15.40;92.20;;;;;;5136525;27;20019;-83
2023/07/27 05:29:10;;;;;;;5.50;2.70;;;15.50;92.60;;;;;;5139494;27;20039;-85
2023/07/27 05:31:36;;;;;;;5.88;2.72;;;15.60;92.30;;;;;;5139311;27;20043;-85
2023/07/27 05:34:01;;;;;;;6.88;2.22;;;15.70;91.50;;;;;;5139624;27;20030;-84
2023/07/27 05:36:27;;;;;;;5.32;2.25;;;15.80;90.90;;;;;;5138228;27;20461;-84
2023/07/27 05:38:54;;;;;;;6.65;2.35;;;15.90;91.20;;;;;;5139523;27;20038;-84
2023/07/27 05:41:20;;;;;;;8.18;2.50;;;16.00;89.90;;;;;;5139348;27;20023;-85
2023/07/27 05:43:45;;;;;;;4.97;2.35;;;16.10;90.40;;;;;;5120490;27;20023;-84
2023/07/27 05:46:11;;;;;;;5.60;2.72;;;16.10;89.90;;;;;;5139556;27;20050;-85
2023/07/27 05:48:36;;;;;;;4.57;2.30;;;16.10;90.20;;;;;;5139349;27;20039;-84
2023/07/27 05:51:03;;;;;;;6.70;2.65;;;16.10;90.50;;;;;;5132684;27;20135;-84
2023/07/27 05:53:28;;;;;;;6.13;2.40;;;16.10;90.00;;;;;;5132268;27;20020;-84
2023/07/27 05:55:54;;;;;;;6.25;2.40;;;16.20;89.70;;;;;;5130061;27;20041;-84
2023/07/27 05:58:20;;;;;;;6.80;2.35;;;16.30;89.70;;;;;;5137213;27;20023;-84
2023/07/27 06:00:45;;;;;;;4.68;2.30;;;16.50;88.40;;;;;;5139230;27;20028;-85
2023/07/27 06:03:11;;;;;;;6.32;2.58;;;16.50;89.30;;;;;;5121053;27;20022;-84
2023/07/27 06:05:43;;;;;;;5.20;2.47;;;16.70;88.70;;;;;;5116224;27;20323;-84
2023/07/27 06:08:09;;;;;;;6.88;2.50;;;16.80;88.30;;;;;;5136231;27;20019;-84
2023/07/27 06:10:34;;;;;;;6.80;2.55;;;16.90;88.40;;;;;;5135015;27;20335;-84
2023/07/27 06:13:00;;;;;;;4.47;2.20;;;16.90;88.20;;;;;;5135618;27;20147;-84
2023/07/27 06:15:26;;;;;;;7.22;2.65;;;16.90;88.00;;;;;;5134861;27;20084;-85
2023/07/27 06:17:52;;;;;;;4.85;2.67;;;16.90;90.20;;;;;;5129554;27;20411;-85
2023/07/27 06:20:17;;;;;;;5.05;2.78;;;16.90;90.20;;;;;;5135394;27;20353;-84
2023/07/27 06:22:43;;;;;;;6.18;2.50;;;16.80;90.10;;;;;;5134640;27;20027;-84
2023/07/27 06:25:08;;;;;;;4.68;2.47;;;16.70;91.90;;;;;;5135598;27;20030;-85
2023/07/27 06:27:34;;;;;;;5.68;2.38;;;16.50;92.60;;;;;;5135898;27;20051;-84
2023/07/27 06:29:59;;;;;;;5.95;2.67;;;16.30;92.30;;;;;;5136503;27;20043;-84
2023/07/27 06:32:25;;;;;;;6.28;2.50;;;16.30;92.90;;;;;;5133802;27;20028;-84
2023/07/27 06:34:53;;;;;;;5.10;2.42;;;16.40;91.30;;;;;;5130314;27;20042;-84
2023/07/27 06:37:19;;;;;;;4.60;2.55;;;16.50;89.90;;;;;;5120610;27;20023;-84
2023/07/27 06:39:45;;;;;;;6.43;2.30;;;16.70;90.50;;;;;;5138601;27;20031;-84
2023/07/27 06:42:10;;;;;;;5.93;2.65;;;16.90;89.80;;;;;;5138661;27;20023;-84
2023/07/27 06:44:39;;;;;;;6.95;2.72;;;16.90;89.80;;;;;;5119599;27;20115;-85
2023/07/27 06:47:04;;;;;;;6.05;2.35;;;17.00;88.70;;;;;;5119369;27;20334;-84
2023/07/27 06:49:30;;;;;;;5.65;2.50;;;17.10;89.20;;;;;;5133648;27;20035;-85
2023/07/27 06:51:55;;;;;;;6.97;2.78;;;17.10;89.20;;;;;;5133869;27;20110;-85
2023/07/27 06:54:21;;;;;;;5.43;2.70;;;16.90;89.50;;;;;;5136332;27;20031;-85
2023/07/27 06:56:47;;;;;;;5.70;2.83;;;16.80;87.70;;;;;;5137314;27;20169;-85
2023/07/27 06:59:12;;;;;;;5.93;2.15;;;16.70;88.90;;;;;;5137901;27;20407;-85
2023/07/27 07:01:38;;;;;;;6.03;2.63;;;16.80;88.90;;;;;;5134932;27;20106;-85
2023/07/27 07:04:04;;;;;;;4.80;2.25;;;16.90;89.50;;;;;;5128250;27;20517;-85
2023/07/27 07:06:30;;;;;;;6.30;2.60;;;16.90;88.20;;;;;;5132255;27;20042;-85
2023/07/27 07:08:57;;;;;;;6.18;2.35;;;16.80;90.00;;;;;;5136534;27;20051;-85
2023/07/27 07:11:23;;;;;;;4.88;2.60;;;16.90;88.10;;;;;;5137268;27;20016;-85
2023/07/27 07:13:48;;;;;;;5.70;2.58;;;17.00;89.00;;;;;;5120252;27;20035;-85
2023/07/27 07:16:15;;;;;;;4.43;2.30;;;17.10;89.40;;;;;;5137274;27;20053;-86
2023/07/27 07:18:47;;;;;;;5.10;2.35;;;17.10;88.50;;;;;;5136295;27;20011;-86
2023/07/27 07:21:12;;;;;;;4.45;2.22;;;17.20;87.80;;;;;;5135991;27;20027;-84
2023/07/27 07:23:38;;;;;;;6.00;2.35;;;17.10;88.00;;;;;;5134999;27;20474;-83
2023/07/27 07:26:06;;;;;;;4.50;2.38;;;17.20;88.40;;;;;;5132727;27;20414;-83
2023/07/27 07:28:32;;;;;;;7.47;2.22;;;17.30;89.20;;;;;;5136854;27;20474;-83
2023/07/27 07:30:57;;;;;;;5.05;2.10;;;17.40;88.00;;;;;;5128188;27;20115;-83
2023/07/27 07:33:23;;;;;;;6.40;2.40;;;17.30;88.30;;;;;;5134618;27;20027;-83
2023/07/27 07:35:49;;;;;;;7.50;2.30;;;17.40;88.20;;;;;;5135259;27;20031;-85
2023/07/27 07:38:14;;;;;;;5.45;2.53;;;17.30;88.60;;;;;;5136553;27;20084;-84
2023/07/27 07:40:40;;;;;;;4.60;2.22;;;17.30;89.30;;;;;;5119063;27;20020;-84
2023/07/27 07:43:09;;;;;;;5.25;2.10;;;17.40;90.20;;;;;;5119841;27;20303;-84
2023/07/27 07:45:35;;;;;;;5.28;2.22;;;17.50;89.60;;;;;;5123632;27;20023;-84
2023/07/27 07:48:00;;;;;;;6.97;2.50;;;17.60;88.10;;;;;;5123612;27;20419;-84
2023/07/27 07:50:29;;;;;;;3.95;1.85;;;17.70;86.80;;;;;;5136042;27;20034;-84
2023/07/27 07:52:54;;;;;;;5.57;2.10;;;17.80;86.60;;;;;;5136477;27;20048;-86
2023/07/27 07:55:20;;;;;;;5.50;2.33;;;17.70;85.80;;;;;;5127256;27;20027;-84
2023/07/27 07:57:45;;;;;;;6.63;1.83;;;17.80;87.00;;;;;;5136719;27;20035;-84
2023/07/27 08:00:11;;;;;;;4.50;1.92;;;18.00;85.10;;;;;;5119643;27;20407;-84
2023/07/27 08:02:38;;;;;;;5.50;2.08;;;18.00;84.70;;;;;;5134777;27;20441;-83
2023/07/27 08:05:04;;;;;;;4.18;2.13;;;18.10;85.20;;;;;;5134142;27;20053;-84
2023/07/27 08:07:30;;;;;;;5.78;2.40;;;18.30;84.90;;;;;;5127506;27;20050;-83
2023/07/27 08:09:56;;;;;;;5.05;1.90;;;18.20;84.40;;;;;;5136075;27;20084;-83
2023/07/27 08:12:22;;;;;;;4.15;2.00;;;18.10;84.80;;;;;;5136174;27;20027;-84
2023/07/27 08:14:47;;;;;;;4.93;2.17;;;18.40;85.50;;;;;;5135492;27;20056;-83
2023/07/27 08:17:13;;;;;;;4.97;1.98;;;18.60;82.60;;;;;;5135944;27;21245;-83
2023/07/27 08:19:38;;;;;;;6.50;2.33;;;18.40;83.20;;;;;;5135634;27;20147;-83
2023/07/27 08:22:05;;;;;;;4.10;1.75;;;18.40;84.50;;;;;;5135956;27;20026;-83
2023/07/27 08:24:31;;;;;;;7.20;1.95;;;18.50;83.50;;;;;;5122309;28;20362;-84
2023/07/27 08:26:56;;;;;;;4.70;2.10;;;18.70;84.10;;;;;;5136846;28;20024;-84
2023/07/27 08:29:22;;;;;;;5.35;2.05;;;18.90;83.30;;;;;;5125386;28;20077;-84
2023/07/27 08:31:47;;;;;;;4.15;1.80;;;19.10;82.40;;;;;;5135295;28;20319;-84
2023/07/27 08:34:13;;;;;;;5.07;2.05;;;19.20;82.40;;;;;;5135763;28;20049;-83
2023/07/27 08:36:38;;;;;;;3.55;1.80;;;19.60;82.50;;;;;;5133127;28;20234;-83
2023/07/27 08:39:04;;;;;;;5.28;1.88;;;19.60;80.20;;;;;;5135370;27;20035;-84
2023/07/27 08:41:30;;;;;;;4.05;1.85;;;19.70;80.50;;;;;;5119494;28;20031;-85
2023/07/27 08:43:58;;;;;;;6.03;1.80;;;19.80;80.10;;;;;;5136417;28;20454;-84
2023/07/27 08:46:25;;;;;;;4.28;1.92;;;19.90;79.80;;;;;;5135291;27;20030;-84
2023/07/27 08:48:52;;;;;;;4.85;1.95;;;19.90;79.60;;;;;;5135952;27;20047;-84
2023/07/27 08:51:18;;;;;;;4.97;2.00;;;19.80;79.70;;;;;;5133560;27;20062;-83
2023/07/27 08:53:43;;;;;;;5.03;1.85;;;19.90;80.30;;;;;;5135873;28;20054;-83
2023/07/27 08:56:09;;;;;;;4.10;1.85;;;20.00;79.50;;;;;;5135251;27;20411;-84
2023/07/27 08:58:34;;;;;;;4.32;1.80;;;20.00;79.40;;;;;;5136786;27;20031;-84
2023/07/27 09:01:00;;;;;;;4.25;1.80;;;20.00;80.40;;;;;;5139316;27;20038;-85
2023/07/27 09:03:26;;;;;;;6.90;2.20;;;20.00;79.80;;;;;;5139745;27;20393;-84
2023/07/27 09:05:59;;;;;;;3.72;1.60;;;20.00;79.50;;;;;;5123103;27;20027;-84
2023/07/27 09:08:29;;;;;;;6.00;1.85;;;19.90;79.90;;;;;;5138761;27;20434;-83
2023/07/27 09:11:04;;;;;;;4.95;1.80;;;19.70;80.20;;;;;;5136600;27;20039;-84
2023/07/27 09:13:33;;;;;;;4.28;2.03;;;19.50;79.80;;;;;;5139342;27;20412;-82
2023/07/27 09:16:02;;;;;;;4.05;1.70;;;19.40;81.00;;;;;;5116193;27;20422;-83
2023/07/27 09:18:32;;;;;;;3.95;1.65;;;19.50;81.00;;;;;;5132972;27;20084;-84
2023/07/27 09:20:58;;;;;;;5.40;2.50;;;19.90;80.80;;;;;;5137434;27;20419;-85
2023/07/27 09:23:24;;;;;;;4.68;1.63;;;20.10;80.00;;;;;;5139768;27;20150;-85
2023/07/27 09:25:55;;;;;;;3.42;1.70;;;20.30;79.00;;;;;;5138575;27;20019;-82
2023/07/27 09:28:28;;;;;;;3.97;1.70;;;20.10;78.90;;;;;;5139810;27;20023;-82
2023/07/27 09:31:02;;;;;;;6.50;1.90;;;20.40;79.80;;;;;;5132751;27;20065;-82
2023/07/27 09:33:28;;;;;;;3.65;1.80;;;20.60;78.90;;;;;;5135580;27;20034;-82
2023/07/27 09:35:55;;;;;;;5.82;2.03;;;20.60;78.90;;;;;;5118300;28;20036;-83
2023/07/27 09:38:28;;;;;;;4.30;1.45;;;20.20;78.30;;;;;;5109011;27;20023;-82
2023/07/27 09:40:53;;;;;;;5.05;1.70;;;20.10;80.00;;;;;;5139824;27;20104;-82
2023/07/27 09:43:25;;;;;;;5.10;2.00;;;19.90;81.10;;;;;;5140018;27;20148;-81
2023/07/27 09:45:58;;;;;;;3.45;1.42;;;19.60;80.90;;;;;;5138904;27;20019;-83
2023/07/27 09:48:24;;;;;;;5.85;1.88;;;19.60;80.30;;;;;;5138415;27;20054;-82
2023/07/27 09:50:52;;;;;;;5.00;1.90;;;19.50;82.20;;;;;;5138444;27;20023;-82
2023/07/27 09:53:20;;;;;;;3.25;1.50;;;19.60;82.40;;;;;;5139627;27;20160;-82
2023/07/27 09:55:47;;;;;;;4.38;1.80;;;19.70;81.30;;;;;;5139655;27;20027;-82
2023/07/27 09:58:14;;;;;;;5.07;1.75;;;19.80;80.20;;;;;;5139624;27;20031;-82
2023/07/27 10:00:40;;;;;;;3.40;1.60;;;19.90;80.40;;;;;;5139528;27;20023;-82
2023/07/27 10:03:06;;;;;;;5.60;2.00;;;19.90;80.70;;;;;;5138641;27;20019;-82
2023/07/27 10:05:32;;;;;;;6.97;1.90;;;20.00;81.20;;;;;;5134606;27;20054;-82
2023/07/27 10:07:57;;;;;;;4.18;1.70;;;20.10;80.50;;;;;;5121447;27;20026;-81
2023/07/27 10:10:33;;;;;;;3.88;1.60;;;19.90;80.10;;;;;;5119407;27;20030;-82
2023/07/27 10:13:25;;;;;;;6.15;2.38;;;19.80;81.30;;;;;;5139339;27;20109;-82
2023/07/27 10:15:56;;;;;;;6.53;2.00;;;19.50;81.10;;;;;;5137134;27;20118;-81
2023/07/27 10:18:29;;;;;;;4.30;1.77;;;19.40;83.10;;;;;;5139294;27;20415;-80
2023/07/27 10:21:14;;;;;;;4.25;1.60;;;19.50;82.60;;;;;;5118925;27;20057;-80
2023/07/27 10:23:54;;;;;;;4.85;1.95;;;19.60;82.30;;;;;;5137908;27;20420;-80
2023/07/27 10:26:21;;;;;;;3.42;1.58;;;19.90;82.80;;;;;;5139187;27;20029;-80
2023/07/27 10:28:48;;;;;;;4.40;2.00;;;20.00;81.30;;;;;;5139051;27;20434;-82
2023/07/27 10:31:14;;;;;;;5.70;2.00;;;19.90;80.90;;;;;;5138842;27;20023;-82
2023/07/27 10:34:00;;;;;;;4.05;1.83;;;19.80;82.00;;;;;;5120212;27;20072;-83
2023/07/27 10:36:47;;;;;;;4.70;1.90;;;19.70;83.60;;;;;;5126528;27;20050;-82
2023/07/27 10:39:18;;;;;;;4.22;1.70;;;20.00;81.10;;;;;;5120540;27;20015;-82
2023/07/27 10:42:05;;;;;;;4.53;1.77;;;20.40;81.80;;;;;;5138687;27;20143;-82
2023/07/27 10:44:54;;;;;;;4.93;1.80;;;20.70;79.90;;;;;;5138808;27;20016;-82
2023/07/27 10:47:25;;;;;;;5.80;1.85;;;21.10;78.50;;;;;;5119656;27;20027;-82
2023/07/27 10:49:54;;;;;;;4.82;1.90;;;21.00;79.10;;;;;;5118923;27;20039;-82
2023/07/27 10:52:27;;;;;;;4.45;1.75;;;21.20;78.80;;;;;;5120257;27;20438;-83
2023/07/27 10:54:54;;;;;;;4.23;1.90;;;21.50;77.90;;;;;;5138708;27;20468;-81
2023/07/27 10:57:20;;;;;;;5.22;1.60;;;21.60;77.50;;;;;;5138550;27;20035;-82
2023/07/27 10:59:49;;;;;;;5.18;1.83;;;21.70;77.10;;;;;;5138494;27;20105;-82
2023/07/27 11:02:17;;;;;;;5.80;1.88;;;21.90;77.30;;;;;;5118959;27;20423;-82
2023/07/27 11:04:43;;;;;;;4.93;1.50;;;22.30;75.70;;;;;;5136012;27;20031;-82
2023/07/27 11:07:10;;;;;;;4.55;2.00;;;22.90;75.30;;;;;;5138396;27;20030;-82
2023/07/27 11:09:37;;;;;;;4.55;1.95;;;23.40;73.40;;;;;;5138212;27;20023;-82
2023/07/27 11:12:04;;;;;;;3.03;1.58;;;23.10;74.00;;;;;;5138274;27;20106;-82
2023/07/27 11:14:30;;;;;;;4.10;1.65;;;22.60;76.10;;;;;;5138216;27;20023;-82
2023/07/27 11:16:56;;;;;;;3.03;1.45;;;22.90;75.30;;;;;;5137887;27;20084;-81
2023/07/27 11:19:24;;;;;;;4.30;1.80;;;23.60;74.20;;;;;;5118806;27;20035;-82
2023/07/27 11:21:50;;;;;;;4.22;2.10;;;24.10;73.50;;;;;;5135291;27;20315;-81
2023/07/27 11:24:18;;;;;;;4.22;1.65;;;24.10;73.70;;;;;;5137968;27;20015;-81
2023/07/27 11:26:44;;;;;;;4.63;1.90;;;23.60;74.10;;;;;;5137969;27;20096;-82
2023/07/27 11:29:10;;;;;;;4.00;1.65;;;23.30;74.60;;;;;;5137965;27;20027;-82
2023/07/27 11:31:36;;;;;;;4.18;1.58;;;23.20;74.80;;;;;;5137920;27;20015;-82
2023/07/27 11:34:03;;;;;;;5.20;2.17;;;22.90;75.40;;;;;;5135734;27;20027;-82
2023/07/27 11:36:33;;;;;;;4.13;1.85;;;22.80;76.50;;;;;;5135622;27;20019;-81
2023/07/27 11:39:00;;;;;;;5.38;2.20;;;23.00;76.60;;;;;;5136430;27;20911;-82
2023/07/27 11:41:28;;;;;;;4.13;1.70;;;23.00;77.00;;;;;;5119341;27;20390;-82
2023/07/27 11:43:55;;;;;;;4.40;1.70;;;23.00;76.90;;;;;;5137655;27;20365;-82
2023/07/27 11:46:21;;;;;;;4.40;1.85;;;22.60;77.40;;;;;;5137502;27;20075;-82
2023/07/27 11:48:49;;;;;;;5.78;1.80;;;22.60;79.00;;;;;;5137152;27;20046;-82
2023/07/27 11:51:14;;;;;;;4.07;1.77;;;22.90;78.50;;;;;;5135881;27;20035;-82
2023/07/27 11:53:43;;;;;;;6.13;2.30;;;22.70;79.00;;;;;;5118119;27;20027;-83
2023/07/27 11:56:09;;;;;;;4.85;1.73;;;22.40;79.30;;;;;;5137448;27;20173;-83
2023/07/27 11:58:37;;;;;;;6.45;1.83;;;22.30;79.80;;;;;;5137312;27;20487;-83
2023/07/27 12:01:03;;;;;;;3.72;1.77;;;21.90;80.30;;;;;;5136145;27;20038;-83
2023/07/27 12:03:31;;;;;;;5.03;1.92;;;21.90;81.70;;;;;;5137317;27;20027;-82
2023/07/27 12:05:57;;;;;;;4.30;2.10;;;21.50;82.10;;;;;;5117757;28;20019;-82
2023/07/27 12:08:23;;;;;;;4.93;1.77;;;21.30;82.50;;;;;;5135457;27;20026;-82
2023/07/27 12:11:01;;;;;;;3.88;1.90;;;21.20;82.70;;;;;;5131938;27;20031;-82
2023/07/27 12:13:27;;;;;;;5.32;1.90;;;20.60;83.90;;;;;;5135970;27;20327;-83
2023/07/27 12:16:11;;;;;;;7.65;2.40;;;20.20;85.90;;;;;;5137135;27;20019;-82
2023/07/27 12:18:36;;;;;;;3.60;2.10;;;19.90;87.30;;;;;;5134553;27;20038;-81
2023/07/27 12:21:02;;;;;;;6.18;2.00;;;19.70;89.50;;;;;;5135065;27;20019;-82
2023/07/27 12:23:28;;;;;;;3.70;2.00;;;19.40;90.70;;;;;;5136990;27;20020;-83
2023/07/27 12:25:55;;;;;;;7.25;2.72;;;19.00;91.90;;;;;;5136917;27;20061;-84
2023/07/27 12:28:21;;;;;;;4.32;2.30;;;18.80;94.10;;;;;;5135943;28;20034;-88
2023/07/27 12:37:35;;;;;;;4.85;2.28;;;18.50;97.50;;;;;;5136783;27;20029;-88
2023/07/27 12:40:02;;;;;;;5.03;2.58;;;18.40;96.60;;;;;;5140357;27;20027;-88
2023/07/27 12:42:28;;;;;;;5.82;3.00;;;18.40;97.70;;;;;;5140853;27;20026;-89
2023/07/27 12:44:53;;;;;;;4.55;2.20;;;18.50;97.20;;;;;;5140890;27;20022;-87
2023/07/27 12:47:19;;;;;;;5.22;2.28;;;18.80;98.00;;;;;;5141053;27;20324;-85
2023/07/27 12:49:45;;;;;;;4.78;2.40;;;18.70;96.90;;;;;;5139355;27;20043;-84
2023/07/27 12:52:10;;;;;;;4.00;2.13;;;18.50;97.00;;;;;;5140155;27;20098;-85
2023/07/27 12:54:36;;;;;;;5.70;2.47;;;18.50;97.60;;;;;;5139205;27;20019;-85
2023/07/27 12:57:02;;;;;;;5.38;2.33;;;18.50;96.60;;;;;;5122599;27;20023;-85